createdAt,value
2023-03-18T00:03:41.480Z,8.65
2023-03-18T00:07:43.766Z,8.02
2023-03-18T00:11:47.008Z,7.30
2023-03-18T00:15:51.964Z,7.55
2023-03-18T00:19:54.730Z,7.63
2023-03-18T00:23:58.635Z,7.55
2023-03-18T00:28:00.793Z,8.60
2023-03-18T00:32:02.708Z,7.32
2023-03-18T00:36:06.432Z,7.53
2023-03-18T00:40:17.214Z,7.15
2023-03-18T00:44:19.573Z,8.27
2023-03-18T00:48:21.678Z,6.57
2023-03-18T00:52:24.083Z,8.68
2023-03-18T00:56:29.502Z,7.22
2023-03-18T01:00:32.114Z,7.85
2023-03-18T01:04:34.560Z,6.85
2023-03-18T01:08:36.631Z,8.30
2023-03-18T01:12:41.105Z,7.55
2023-03-18T01:16:43.248Z,7.30
2023-03-18T01:20:45.501Z,7.32
2023-03-18T01:24:48.194Z,6.28
2023-03-18T01:28:52.494Z,6.97
2023-03-18T01:32:55.666Z,7.25
2023-03-18T01:36:58.257Z,6.95
2023-03-18T01:41:04.515Z,6.78
2023-03-18T01:45:21.916Z,6.90
2023-03-18T01:49:38.638Z,6.55
2023-03-18T01:53:45.673Z,5.47
2023-03-18T01:57:49.689Z,6.88
2023-03-18T02:01:56.353Z,6.45
2023-03-18T02:05:59.986Z,6.80
2023-03-18T02:10:11.108Z,6.57
2023-03-18T02:14:14.958Z,6.80
2023-03-18T02:18:30.008Z,6.72
2023-03-18T02:23:09.858Z,6.43
2023-03-18T02:27:40.692Z,6.20
2023-03-18T02:31:43.893Z,6.70
2023-03-18T02:35:51.496Z,6.30
2023-03-18T02:39:53.613Z,5.40
2023-03-18T02:43:56.025Z,6.53
2023-03-18T02:48:04.242Z,5.30
2023-03-18T02:52:06.909Z,5.40
2023-03-18T02:56:10.627Z,5.90
2023-03-18T03:00:14.526Z,4.53
2023-03-18T03:04:17.857Z,5.68
2023-03-18T03:08:20.381Z,5.30
2023-03-18T03:12:23.096Z,5.13
2023-03-18T03:16:29.846Z,5.00
2023-03-18T03:20:35.573Z,5.13
2023-03-18T03:24:37.744Z,5.10
2023-03-18T03:28:39.775Z,5.13
2023-03-18T03:32:41.941Z,5.72
2023-03-18T03:36:45.446Z,5.50
2023-03-18T03:40:47.917Z,5.50
2023-03-18T03:44:49.971Z,5.05
2023-03-18T03:48:52.273Z,5.18
2023-03-18T03:52:55.023Z,5.25
2023-03-18T03:56:57.588Z,5.30
2023-03-18T04:00:59.842Z,4.75
2023-03-18T04:05:02.378Z,5.80
2023-03-18T04:09:06.097Z,4.85
2023-03-18T04:13:08.994Z,5.03
2023-03-18T04:17:11.637Z,4.68
2023-03-18T04:21:14.886Z,5.25
2023-03-18T04:25:25.182Z,4.43
2023-03-18T04:29:28.394Z,5.13
2023-03-18T04:33:30.974Z,5.25
2023-03-18T04:37:37.113Z,5.47
2023-03-18T04:41:40.078Z,4.85
2023-03-18T04:45:43.625Z,4.57
2023-03-18T04:49:46.305Z,6.50
2023-03-18T04:53:50.071Z,5.07
2023-03-18T04:57:52.107Z,4.72
2023-03-18T05:01:56.926Z,4.47
2023-03-18T05:05:59.143Z,5.40
2023-03-18T05:10:11.713Z,4.30
2023-03-18T05:14:15.570Z,5.65
2023-03-18T05:18:21.184Z,5.25
2023-03-18T05:22:26.414Z,5.43
2023-03-18T05:26:36.176Z,4.28
2023-03-18T05:30:40.418Z,5.32
2023-03-18T05:34:46.102Z,4.75
2023-03-18T05:38:48.548Z,5.10
2023-03-18T05:42:56.172Z,5.50
2023-03-18T05:47:08.969Z,4.13
2023-03-18T05:51:20.669Z,4.78
2023-03-18T05:55:23.547Z,4.93
2023-03-18T05:59:25.938Z,4.65
2023-03-18T06:03:32.433Z,5.55
2023-03-18T06:07:34.769Z,5.25
2023-03-18T06:11:37.102Z,5.32
2023-03-18T06:15:39.340Z,5.57
2023-03-18T06:19:41.785Z,5.18
2023-03-18T06:23:45.046Z,4.93
2023-03-18T06:27:48.017Z,5.35
2023-03-18T06:31:52.585Z,4.28
2023-03-18T06:36:00.580Z,5.35
2023-03-18T06:40:06.011Z,4.63
2023-03-18T06:44:08.384Z,4.70
2023-03-18T06:48:10.555Z,5.15
2023-03-18T06:52:16.018Z,4.43
2023-03-18T06:56:20.561Z,4.80
2023-03-18T07:00:34.099Z,4.65
2023-03-18T07:04:36.619Z,5.47
2023-03-18T07:08:39.690Z,4.97
2023-03-18T07:12:41.943Z,5.05
2023-03-18T07:16:44.660Z,5.00
2023-03-18T07:20:46.789Z,5.57
2023-03-18T07:24:49.565Z,4.47
2023-03-18T07:28:51.949Z,5.10
2023-03-18T07:32:55.533Z,4.30
2023-03-18T07:36:57.929Z,4.28
2023-03-18T07:40:59.992Z,4.13
2023-03-18T07:45:02.085Z,4.47
2023-03-18T07:49:04.246Z,4.43
2023-03-18T07:53:06.760Z,3.75
2023-03-18T07:57:08.987Z,4.25
2023-03-18T08:01:12.089Z,4.03
2023-03-18T08:05:14.725Z,4.60
2023-03-18T08:09:16.823Z,3.47
2023-03-18T08:13:18.890Z,4.25
2023-03-18T08:17:21.310Z,4.55
2023-03-18T08:21:23.756Z,4.53
2023-03-18T08:25:26.115Z,4.22
2023-03-18T08:29:28.269Z,4.40
2023-03-18T08:33:30.387Z,4.72
2023-03-18T08:37:32.696Z,4.68
2023-03-18T08:41:34.704Z,4.68
2023-03-18T08:45:37.252Z,4.55
2023-03-18T08:49:39.338Z,4.20
2023-03-18T08:53:41.574Z,4.05
2023-03-18T08:57:43.684Z,4.72
2023-03-18T09:01:45.855Z,4.30
2023-03-18T09:05:49.083Z,4.28
2023-03-18T09:09:54.145Z,3.85
2023-03-18T09:13:56.246Z,3.63
2023-03-18T09:18:10.742Z,4.18
2023-03-18T09:22:13.893Z,3.83
2023-03-18T09:26:16.574Z,3.65
2023-03-18T09:30:19.137Z,3.63
2023-03-18T09:34:21.280Z,4.28
2023-03-18T09:38:23.750Z,3.50
2023-03-18T09:42:32.256Z,3.63
2023-03-18T09:47:08.329Z,3.70
2023-03-18T09:51:46.161Z,3.42
2023-03-18T09:55:53.859Z,4.25
2023-03-18T10:00:20.537Z,4.35
2023-03-18T10:04:33.452Z,3.90
2023-03-18T10:08:57.108Z,4.10
2023-03-18T10:13:57.879Z,3.80
2023-03-18T10:22:22.185Z,3.75
2023-03-18T10:26:33.267Z,4.35
2023-03-18T10:30:42.968Z,4.15
2023-03-18T10:34:44.723Z,3.53
2023-03-18T10:38:52.685Z,3.92
2023-03-18T10:42:56.440Z,4.20
2023-03-18T10:47:28.234Z,3.55
2023-03-18T10:51:43.821Z,3.20
2023-03-18T10:55:57.444Z,4.03
2023-03-18T10:59:59.730Z,3.65
2023-03-18T11:04:06.651Z,3.83
2023-03-18T11:08:34.281Z,4.25
2023-03-18T11:12:36.428Z,3.72
2023-03-18T11:16:51.807Z,3.25
2023-03-18T11:21:01.083Z,3.65
2023-03-18T11:25:16.387Z,4.43
2023-03-18T11:29:24.366Z,3.92
2023-03-18T11:33:33.015Z,4.27
2023-03-18T11:37:37.731Z,3.70
2023-03-18T11:41:40.229Z,4.20
2023-03-18T11:46:23.840Z,4.38
2023-03-18T11:50:37.127Z,3.60
2023-03-18T11:54:45.817Z,4.18
2023-03-18T11:58:56.682Z,3.75
2023-03-18T12:03:16.851Z,4.05
2023-03-18T12:07:45.041Z,3.88
2023-03-18T12:12:06.787Z,4.03
2023-03-18T12:16:41.736Z,3.67
2023-03-18T12:20:50.883Z,3.80
2023-03-18T12:25:21.044Z,3.40
2023-03-18T12:29:34.997Z,3.42
2023-03-18T12:33:45.862Z,3.38
2023-03-18T12:37:59.966Z,4.47
2023-03-18T12:42:03.533Z,3.75
2023-03-18T12:46:23.465Z,3.90
2023-03-18T12:50:36.788Z,4.60
2023-03-18T12:54:45.703Z,3.55
2023-03-18T13:02:59.217Z,4.50
2023-03-18T13:07:05.756Z,3.40
2023-03-18T13:11:27.156Z,4.00
2023-03-18T13:15:40.763Z,4.25
2023-03-18T13:19:43.874Z,3.42
2023-03-18T13:24:07.032Z,3.53
2023-03-18T13:28:37.675Z,3.05
2023-03-18T13:32:48.710Z,3.03
2023-03-18T13:37:02.872Z,4.10
2023-03-18T13:41:17.551Z,3.55
2023-03-18T13:45:44.491Z,3.55
2023-03-18T13:49:47.361Z,3.67
2023-03-18T13:53:51.451Z,4.20
2023-03-18T13:57:58.204Z,4.05
2023-03-18T14:02:33.523Z,4.40
2023-03-18T14:06:35.538Z,4.38
2023-03-18T14:10:38.424Z,4.35
2023-03-18T14:14:42.447Z,4.22
2023-03-18T14:18:44.328Z,3.78
2023-03-18T14:22:49.806Z,4.43
2023-03-18T14:27:16.380Z,4.50
2023-03-18T14:31:40.336Z,4.75
2023-03-18T14:35:49.845Z,3.95
2023-03-18T14:39:55.895Z,4.10
2023-03-18T14:44:18.613Z,4.35
2023-03-18T14:48:29.217Z,4.88
2023-03-18T14:52:38.793Z,4.38
2023-03-18T14:56:52.442Z,4.05
2023-03-18T15:01:09.781Z,4.30
2023-03-18T15:05:22.822Z,4.82
2023-03-18T15:09:35.901Z,6.88
2023-03-18T15:13:42.255Z,5.00
2023-03-18T15:17:50.318Z,5.30
2023-03-18T15:21:52.938Z,5.13
2023-03-18T15:25:55.249Z,5.38
2023-03-18T15:30:02.782Z,5.85
2023-03-18T15:34:24.940Z,5.65
2023-03-18T15:38:31.013Z,4.93
2023-03-18T15:42:34.679Z,6.55
2023-03-18T15:46:36.643Z,5.18
2023-03-18T15:50:52.747Z,5.28
2023-03-18T15:54:54.723Z,4.78
2023-03-18T15:59:12.979Z,6.00
2023-03-18T16:03:19.332Z,5.80
2023-03-18T16:07:28.249Z,6.88
2023-03-18T16:11:30.259Z,6.07
2023-03-18T16:15:32.929Z,6.65
2023-03-18T16:19:35.014Z,8.38
2023-03-18T16:23:37.111Z,7.32
2023-03-18T16:27:42.193Z,8.43
2023-03-18T16:31:45.439Z,10.82
2023-03-18T16:35:59.033Z,9.30
2023-03-18T16:40:01.262Z,10.25
2023-03-18T16:44:11.599Z,8.48
2023-03-18T16:48:17.393Z,9.27
2023-03-18T16:52:19.414Z,11.27
2023-03-18T16:56:23.847Z,11.90
2023-03-18T17:00:32.824Z,13.00
2023-03-18T17:04:35.428Z,14.25
2023-03-18T17:08:38.319Z,14.15
2023-03-18T17:13:04.190Z,12.48
2023-03-18T17:17:21.756Z,11.45
2023-03-18T17:21:23.937Z,10.25
2023-03-18T17:25:28.388Z,11.32
2023-03-18T17:29:30.655Z,13.55
2023-03-18T17:33:35.457Z,12.35
2023-03-18T17:37:37.514Z,12.50
2023-03-18T17:41:39.922Z,14.00
2023-03-18T17:45:41.965Z,13.73
2023-03-18T17:49:44.026Z,14.57
2023-03-18T17:53:49.019Z,18.20
2023-03-18T17:57:51.028Z,18.35
2023-03-18T18:01:53.527Z,21.10
2023-03-18T18:05:56.866Z,21.90
2023-03-18T18:10:00.836Z,22.83
2023-03-18T18:14:15.548Z,21.98
2023-03-18T18:18:29.125Z,19.92
2023-03-18T18:22:31.152Z,21.25
2023-03-18T18:26:33.242Z,18.48
2023-03-18T18:30:36.394Z,19.08
2023-03-18T18:34:38.589Z,17.92
2023-03-18T18:38:40.949Z,19.95
2023-03-18T18:42:43.750Z,25.02
2023-03-18T18:46:46.159Z,23.20
2023-03-18T18:50:48.624Z,22.85
2023-03-18T18:54:50.741Z,22.02
2023-03-18T18:58:53.665Z,20.88
2023-03-18T19:02:58.812Z,19.55
2023-03-18T19:07:05.440Z,19.40
2023-03-18T19:11:10.353Z,20.90
2023-03-18T19:15:15.289Z,18.05
2023-03-18T19:19:22.203Z,19.67
2023-03-18T19:23:26.788Z,18.50
2023-03-18T19:27:31.408Z,19.15
2023-03-18T19:31:35.555Z,18.38
2023-03-18T19:35:38.360Z,18.70
2023-03-18T19:39:40.597Z,18.88
2023-03-18T19:43:42.700Z,17.83
2023-03-18T19:47:45.922Z,18.60
2023-03-18T19:51:49.738Z,19.00
2023-03-18T19:55:51.978Z,17.98
2023-03-18T19:59:56.457Z,16.77
2023-03-18T20:03:58.846Z,17.42
2023-03-18T20:08:00.898Z,18.10
2023-03-18T20:12:05.891Z,17.52
2023-03-18T20:16:15.958Z,16.27
2023-03-18T20:20:24.462Z,15.60
2023-03-18T20:24:29.687Z,17.15
2023-03-18T20:28:32.100Z,16.65
2023-03-18T20:32:34.192Z,14.98
2023-03-18T20:36:36.959Z,15.68
2023-03-18T20:40:39.014Z,16.27
2023-03-18T20:44:41.119Z,14.75
2023-03-18T20:48:44.245Z,15.48
2023-03-18T20:52:47.806Z,16.45
2023-03-18T20:56:49.899Z,17.17
2023-03-18T21:00:52.888Z,17.48
2023-03-18T21:04:56.251Z,15.57
2023-03-18T21:08:58.348Z,15.93
2023-03-18T21:13:00.372Z,17.35
2023-03-18T21:17:02.530Z,14.77
2023-03-18T21:21:04.719Z,16.05
2023-03-18T21:25:08.944Z,15.68
2023-03-18T21:29:11.102Z,15.60
2023-03-18T21:33:27.338Z,15.77
2023-03-18T21:37:29.436Z,17.40
2023-03-18T21:41:31.882Z,17.60
2023-03-18T21:45:34.721Z,18.25
2023-03-18T21:49:36.946Z,18.85
2023-03-18T21:53:39.119Z,17.35
2023-03-18T21:57:41.148Z,17.92
2023-03-18T22:01:43.197Z,17.05
2023-03-18T22:05:46.598Z,16.08
2023-03-18T22:09:48.591Z,15.98
2023-03-18T22:13:50.762Z,17.15
2023-03-18T22:17:52.813Z,17.00
2023-03-18T22:21:54.816Z,18.45
2023-03-18T22:25:57.991Z,17.88
2023-03-18T22:30:01.126Z,18.33
2023-03-18T22:34:03.442Z,18.55
2023-03-18T22:38:05.462Z,18.25
2023-03-18T22:42:14.142Z,19.25
2023-03-18T22:46:16.683Z,18.02
2023-03-18T22:50:19.913Z,19.15
2023-03-18T22:54:23.893Z,18.63
2023-03-18T22:58:27.985Z,18.70
2023-03-18T23:02:30.152Z,19.45
2023-03-18T23:06:32.225Z,20.08
2023-03-18T23:10:34.349Z,19.60
2023-03-18T23:14:37.128Z,20.35
2023-03-18T23:18:39.186Z,20.02
2023-03-18T23:22:41.894Z,19.98
2023-03-18T23:26:43.973Z,19.38
2023-03-18T23:30:52.177Z,20.17
2023-03-18T23:34:54.256Z,19.90
2023-03-18T23:38:56.454Z,19.38
2023-03-18T23:42:58.577Z,19.42
2023-03-18T23:47:00.583Z,18.50
2023-03-18T23:51:02.749Z,19.08
2023-03-18T23:55:18.357Z,17.77
2023-03-18T23:59:29.550Z,19.10
